D/T METAR WX W/DIR W/SPE G/SPE TEMP DEWP
25/05/20 16:50 EGQK 251550Z AUTO 21015KT 9999 BKN160/// 19/06 Q1025 SSW (210°) 17.3mph 19°C 6°C
25/05/20 15:50 EGQK 251450Z AUTO 22012G23KT 9999 NCD 19/06 Q1025 SW (220°) 13.8mph 26.5mph 19°C 6°C
25/05/20 14:50 EGQK 251350Z AUTO 22017KT 9999 NCD 20/05 Q1026 SW (220°) 19.6mph 20°C 5°C
25/05/20 13:50 EGQK 251250Z AUTO 21014KT 9999 FEW050/// 20/06 Q1026 SSW (210°) 16.1mph 20°C 6°C
25/05/20 12:50 EGQK 251150Z AUTO 21013KT 9999 BKN050/// 21/07 Q1026 SSW (210°) 15.0mph 21°C 7°C
25/05/20 11:50 EGQK 251050Z AUTO 21013KT 9999 FEW050/// 19/07 Q1027 SSW (210°) 15.0mph 19°C 7°C
25/05/20 10:50 EGQK 250950Z AUTO 19012KT 9999 NCD 18/07 Q1027 S (190°) 13.8mph 18°C 7°C
25/05/20 09:50 EGQK 250850Z AUTO 19013KT 9999 NCD 17/07 Q1028 S (190°) 15.0mph 17°C 7°C
25/05/20 08:50 EGQK 250750Z AUTO 19013KT 9999 NCD 15/07 Q1028 S (190°) 15.0mph 15°C 7°C
25/05/20 07:50 EGQK 250650Z AUTO 18008KT 9999 NCD 14/08 Q1028 S (180°) 9.2mph 14°C 8°C
25/05/20 06:50 EGQK 250550Z AUTO 22006KT 9999 NCD 13/08 Q1029 SW (220°) 6.9mph 13°C 8°C
25/05/20 05:50 EGQK 250450Z AUTO 21010KT 9999 NCD 11/07 Q1029 SSW (210°) 11.5mph 11°C 7°C
25/05/20 04:50 EGQK 250350Z AUTO 23008KT 9999 NCD 10/06 Q1028 SW (230°) 9.2mph 10°C 6°C
25/05/20 03:50 EGQK 250250Z AUTO 15004KT 9999 NCD 09/06 Q1028 SSE (150°) 4.6mph 9°C 6°C
25/05/20 02:50 EGQK 250150Z AUTO 21005KT 9999 NCD 10/06 Q1028 SSW (210°) 5.8mph 10°C 6°C
25/05/20 01:50 EGQK 250050Z AUTO 21005KT 9999 NCD 10/06 Q1028 SSW (210°) 5.8mph 10°C 6°C
25/05/20 00:50 EGQK 242350Z AUTO 23011KT 9999 FEW240/// 11/06 Q1028 SW (230°) 12.7mph 11°C 6°C
24/05/20 23:50 EGQK 242250Z AUTO 22006KT 9999 NCD 10/06 Q1028 SW (220°) 6.9mph 10°C 6°C
24/05/20 22:50 EGQK 242150Z AUTO 22009KT 9999 NCD 11/07 Q1028 SW (220°) 10.4mph 11°C 7°C
24/05/20 21:50 EGQK 242050Z AUTO 24013KT 9999 FEW140/// 13/06 Q1027 WSW (240°) 15.0mph 13°C 6°C
24/05/20 20:50 EGQK 241950Z AUTO 25014KT 9999 FEW035/// 14/07 Q1027 WSW (250°) 16.1mph 14°C 7°C
24/05/20 19:50 EGQK 241850Z AUTO 26017KT 9999 FEW030/// 14/08 Q1026 W (260°) 19.6mph 14°C 8°C
24/05/20 18:50 EGQK 241750Z AUTO 26014KT 9999 FEW035/// 15/09 Q1025 W (260°) 16.1mph 15°C 9°C
24/05/20 17:50 EGQK 241650Z AUTO 25018KT 9999 SCT042/// 15/09 Q1025 WSW (250°) 20.7mph 15°C 9°C
24/05/20 16:50 EGQK 241550Z AUTO 26016KT 9999 SCT038/// BKN045/// 15/10 Q1024 W (260°) 18.4mph 15°C 10°C
24/05/20 15:50 EGQK 241450Z AUTO 26021KT 9999 BKN035/// BKN050/// 14/10 Q1024 W (260°) 24.2mph 14°C 10°C
24/05/20 14:50 EGQK 241350Z AUTO 27019KT 9999 FEW039/// BKN045/// 15/10 Q1022 RERA W (270°) 21.9mph 15°C 10°C
24/05/20 13:50 EGQK 241250Z AUTO 25012KT 9999 OVC025/// 14/10 Q1022 WSW (250°) 13.8mph 14°C 10°C
24/05/20 12:50 EGQK 241150Z AUTO 26018KT 9999 OVC031/// 14/10 Q1020 W (260°) 20.7mph 14°C 10°C
24/05/20 11:50 EGQK 241050Z AUTO 25015KT 9999 OVC029/// 14/10 Q1019 WSW (250°) 17.3mph 14°C 10°C
24/05/20 10:50 EGQK 240950Z AUTO 26016KT 9999 FEW027/// OVC031/// 14/10 Q1018 W (260°) 18.4mph 14°C 10°C
24/05/20 09:50 EGQK 240850Z AUTO 26012KT 9999 BKN027/// 13/09 Q1017 W (260°) 13.8mph 13°C 9°C
24/05/20 08:50 EGQK 240750Z AUTO 27017KT 9999 BKN031/// 12/08 Q1016 W (270°) 19.6mph 12°C 8°C
24/05/20 07:50 EGQK 240650Z AUTO 26016KT 9999 BKN041/// 12/07 Q1015 W (260°) 18.4mph 12°C 7°C
24/05/20 06:50 EGQK 240550Z AUTO 26015KT 9999 NCD 11/06 Q1015 W (260°) 17.3mph 11°C 6°C
24/05/20 05:50 EGQK 240450Z AUTO 27024KT 9999 FEW039/// 10/05 Q1014 W (270°) 27.6mph 10°C 5°C
24/05/20 04:50 EGQK 240350Z AUTO 25019KT 9999 OVC041/// 11/05 Q1013 WSW (250°) 21.9mph 11°C 5°C
24/05/20 03:50 EGQK 240250Z AUTO 25019G32KT 9999 BKN038/// BKN045/// 11/05 Q1011 WSW (250°) 21.9mph 36.8mph 11°C 5°C
24/05/20 02:50 EGQK 240150Z AUTO 25022KT 9999 BKN042/// 11/05 Q1010 WSW (250°) 25.3mph 11°C 5°C
24/05/20 01:50 EGQK 240050Z AUTO 26022G33KT 9999 FEW060/// 11/05 Q1009 W (260°) 25.3mph 38.0mph 11°C 5°C
24/05/20 00:50 EGQK 232350Z AUTO 26026KT 9999 FEW050/// 11/06 Q1008 W (260°) 29.9mph 11°C 6°C
23/05/20 23:50 EGQK 232250Z AUTO 26024G36KT 9999 FEW035/// BKN050/// 11/05 Q1008 RERA W (260°) 27.6mph 41.4mph 11°C 5°C
23/05/20 22:50 EGQK 232150Z AUTO 26029G43KT 9999 BKN050/// BKN120/// 11/06 Q1007 W (260°) 33.4mph 49.5mph 11°C 6°C
23/05/20 21:50 EGQK 232050Z AUTO 26028G39KT 9999 SCT042/// 12/04 Q1005 W (260°) 32.2mph 44.9mph 12°C 4°C
23/05/20 20:50 EGQK 231950Z AUTO 26024G36KT 9999 SCT034/// BKN090/// 11/05 Q1005 W (260°) 27.6mph 41.4mph 11°C 5°C
23/05/20 19:50 EGQK 231850Z AUTO 25026G41KT 9999 SCT029/// SCT090/// 11/06 Q1003 WSW (250°) 29.9mph 47.2mph 11°C 6°C
23/05/20 18:50 EGQK 231750Z AUTO 25017KT 9999 BKN028/// SCT080/// 11/08 Q1003 RERA WSW (250°) 19.6mph 11°C 8°C
23/05/20 17:50 EGQK 231650Z AUTO 25017G27KT 9999 BKN024/// SCT039/// BKN045/// 12/08 Q1002 RERA WSW (250°) 19.6mph 31.1mph 12°C 8°C
23/05/20 16:50 EGQK 231550Z AUTO 25019KT 9999 SCT034/// BKN042/// 13/07 Q1001 RERA WSW (250°) 21.9mph 13°C 7°C
23/05/20 15:50 EGQK 231450Z AUTO 24024G35KT 9999 -RA FEW027/// BKN042/// 14/08 Q0999 -RA WSW (240°) 27.6mph 40.3mph 14°C 8°C
23/05/20 14:50 EGQK 231350Z AUTO 24021G31KT 9999 FEW025/// SCT050/// 13/08 Q0999 WSW (240°) 24.2mph 35.7mph 13°C 8°C
23/05/20 13:50 EGQK 231250Z AUTO 25021KT 9999 BKN050/// 13/08 Q0998 RERA WSW (250°) 24.2mph 13°C 8°C
23/05/20 12:50 EGQK 231150Z AUTO 24024KT 9999 FEW032/// BKN044/// 14/07 Q0996 RERA WSW (240°) 27.6mph 14°C 7°C
23/05/20 11:50 EGQK 231050Z AUTO 24019KT 9999 -RA FEW031/// BKN036/// BKN050/// 14/08 Q0995 -RA WSW (240°) 21.9mph 14°C 8°C
23/05/20 10:50 EGQK 230950Z AUTO 24021G32KT 9999 -RADZ FEW031/// BKN038/// 14/07 Q0994 -RA -DZ WSW (240°) 24.2mph 36.8mph 14°C 7°C
23/05/20 09:50 EGQK 230850Z AUTO 23021G34KT 9999 SCT029/// BKN045/// 13/07 Q0994 RERA SW (230°) 24.2mph 39.1mph 13°C 7°C
23/05/20 08:50 EGQK 230750Z AUTO 20017KT 9999 BKN046/// 11/06 Q0993 RERA SSW (200°) 19.6mph 11°C 6°C
23/05/20 07:50 EGQK 230650Z AUTO 21020KT 9999 -RA BKN050/// 09/05 Q0993 -RA SSW (210°) 23.0mph 9°C 5°C
23/05/20 06:50 EGQK 230550Z AUTO 21016G26KT 9999 BKN050/// SCT110/// BKN200/// 10/04 Q0993 SSW (210°) 18.4mph 29.9mph 10°C 4°C
23/05/20 05:50 EGQK 230450Z AUTO 20019G33KT 9999 OVC190/// 10/04 Q0993 SSW (200°) 21.9mph 38.0mph 10°C 4°C
23/05/20 04:50 EGQK 230350Z AUTO 21017KT 9999 BKN180/// 10/04 Q0993 RERA SSW (210°) 19.6mph 10°C 4°C
23/05/20 03:50 EGQK 230250Z AUTO 20014KT 9999 FEW046/// BKN210/// 10/04 Q0994 RERA SSW (200°) 16.1mph 10°C 4°C
23/05/20 02:50 EGQK 230150Z AUTO 20018KT 9999 -RA BKN050/// SCT220/// 10/05 Q0994 -RA SSW (200°) 20.7mph 10°C 5°C
23/05/20 01:50 EGQK 230050Z AUTO 20017G29KT 9999 -RADZ FEW042/// 10/05 Q0995 -RA -DZ SSW (200°) 19.6mph 33.4mph 10°C 5°C
23/05/20 00:50 EGQK 222350Z AUTO 21018G35KT 9999 BKN042/// 10/05 Q0994 RERA SSW (210°) 20.7mph 40.3mph 10°C 5°C
22/05/20 23:50 EGQK 222250Z AUTO 21017G29KT 9999 FEW037/// BKN044/// 11/05 Q0994 SSW (210°) 19.6mph 33.4mph 11°C 5°C
22/05/20 22:50 EGQK 222150Z AUTO 20014KT 9999 BKN041/// SCT050/// 12/05 Q0994 SSW (200°) 16.1mph 12°C 5°C
22/05/20 21:50 EGQK 222050Z AUTO 20013KT 9999 SCT045/// 11/04 Q0994 SSW (200°) 15.0mph 11°C 4°C
22/05/20 20:50 EGQK 221950Z AUTO 21015KT 9999 FEW039/// BKN044/// 12/05 Q0994 SSW (210°) 17.3mph 12°C 5°C
22/05/20 19:50 EGQK 221850Z AUTO 21019KT 9999 SCT039/// BKN050/// 13/05 Q0994 SSW (210°) 21.9mph 13°C 5°C
22/05/20 18:50 EGQK 221750Z AUTO 22020KT 9999 SCT041/// BKN050/// 14/06 Q0993 SW (220°) 23.0mph 14°C 6°C
22/05/20 17:50 EGQK 221650Z AUTO 21016G29KT 9999 BKN041/// BKN050/// 15/07 Q0993 SSW (210°) 18.4mph 33.4mph 15°C 7°C
22/05/20 16:50 EGQK 221550Z AUTO 20021G37KT 9999 BKN050/// 15/06 Q0993 SSW (200°) 24.2mph 42.6mph 15°C 6°C
22/05/20 15:50 EGQK 221450Z AUTO 21023G42KT 9999 BKN050/// 16/06 Q0993 SSW (210°) 26.5mph 48.3mph 16°C 6°C
22/05/20 14:50 EGQK 221350Z AUTO 21023G36KT 9999 FEW043/// BKN050/// 16/06 Q0993 SSW (210°) 26.5mph 41.4mph 16°C 6°C
22/05/20 13:50 EGQK 221250Z AUTO 21020G32KT 9999 SCT044/// BKN050/// 17/07 Q0993 SSW (210°) 23.0mph 36.8mph 17°C 7°C
22/05/20 12:50 EGQK 221150Z 20019G29KT 9999 SCT042 BKN070 16/07 Q0993 BLU SSW (200°) 21.9mph 33.4mph 16°C 7°C
22/05/20 11:50 EGQK 221050Z 20021G33KT 9999 FEW038 SCT045 BKN070 15/06 Q0994 BLU SSW (200°) 24.2mph 38.0mph 15°C 6°C
22/05/20 10:50 EGQK 220950Z 22023G36KT 9999 SCT048 16/05 Q0993 BLU SW (220°) 26.5mph 41.4mph 16°C 5°C
22/05/20 09:50 EGQK 220850Z AUTO 22021G37KT 9999 SCT047/// 16/05 Q0993 SW (220°) 24.2mph 42.6mph 16°C 5°C
22/05/20 08:50 EGQK 220750Z AUTO 20019G29KT 9999 SCT050/// 15/07 Q0993 RERA SSW (200°) 21.9mph 33.4mph 15°C 7°C
22/05/20 07:50 EGQK 220650Z AUTO 14015KT 9999 FEW039/// BKN050/// 14/11 Q0994 RERA SE (140°) 17.3mph 14°C 11°C
22/05/20 06:50 EGQK 220550Z AUTO 12013KT 9999 FEW027/// BKN050/// 13/10 Q0996 RERA ESE (120°) 15.0mph 13°C 10°C
22/05/20 05:50 EGQK 220450Z AUTO 10018KT 9999 -RADZ FEW050/// BKN120/// 12/09 Q0998 -RA -DZ E (100°) 20.7mph 12°C 9°C
22/05/20 04:50 EGQK 220350Z AUTO 12014KT 9999 SCT050/// OVC090/// 13/08 Q1002 ESE (120°) 16.1mph 13°C 8°C
22/05/20 03:50 EGQK 220250Z AUTO 12007KT 9999 OVC080/// 12/08 Q1005 ESE (120°) 8.1mph 12°C 8°C
22/05/20 02:50 EGQK 220150Z AUTO 10008KT 9999 OVC100/// 11/08 Q1007 E (100°) 9.2mph 11°C 8°C
22/05/20 01:50 EGQK 220050Z AUTO 09012KT 9999 OVC120/// 11/09 Q1009 E (90°) 13.8mph 11°C 9°C
22/05/20 00:50 EGQK 212350Z AUTO 08009KT 9999 BKN110/// 11/08 Q1011 E (80°) 10.4mph 11°C 8°C
21/05/20 23:50 EGQK 212250Z AUTO 10008KT 9999 BKN170/// 11/08 Q1012 E (100°) 9.2mph 11°C 8°C
21/05/20 22:50 EGQK 212150Z AUTO 08008KT 9999 FEW050/// BKN170/// 11/08 Q1014 E (80°) 9.2mph 11°C 8°C
21/05/20 21:50 EGQK 212050Z AUTO 08010KT 9999 SCT190/// 11/08 Q1014 E (80°) 11.5mph 11°C 8°C
21/05/20 20:50 EGQK 211950Z AUTO 08008KT 9999 NCD 12/08 Q1015 E (80°) 9.2mph 12°C 8°C
21/05/20 19:50 EGQK 211850Z AUTO 05006KT 9999 FEW035/// 13/08 Q1015 NE (50°) 6.9mph 13°C 8°C
21/05/20 18:50 EGQK 211750Z AUTO 03006KT 9999 FEW029/// 14/08 Q1016 NNE (30°) 6.9mph 14°C 8°C
21/05/20 17:50 EGQK 211650Z AUTO 36007KT 9999 SCT035/// BKN060/// 15/11 Q1016 N (360°) 8.1mph 15°C 11°C